Time;durP1;ratioP1;P1;durP2;ratioP2;P2;SDS_P1;SDS_P2;PMS_P1;PMS_P2;Temp;Humidity;BMP_temperature;BMP_pressure;BME280_temperature;BME280_humidity;BME280_pressure;Samples;Min_cycle;Max_cycle;Signal;HPM_P1;HPM_P2
2021/09/14 00:02:21;;;;;;;3.45;1.52;;;;;;;;;;4934598;29;20040;-86
2021/09/14 00:04:47;;;;;;;1.50;1.17;;;;;;;;;;4935115;29;20119;-86
2021/09/14 00:07:13;;;;;;;2.63;1.73;;;;;;;;;;4934899;29;20046;-87
2021/09/14 00:09:39;;;;;;;4.25;1.65;;;;;;;;;;4934304;29;20031;-88
2021/09/14 00:12:05;;;;;;;3.08;1.42;;;;;;;;;;4936686;29;20032;-87
2021/09/14 00:14:31;;;;;;;2.67;1.42;;;;;;;;;;4934291;29;20048;-87
2021/09/14 00:16:57;;;;;;;2.83;1.88;;;;;;;;;;4934671;29;20170;-87
2021/09/14 00:19:24;;;;;;;4.45;2.20;;;;;;;;;;4934209;29;20106;-87
2021/09/14 00:21:50;;;;;;;5.50;1.90;;;;;;;;;;4933063;29;20040;-87
2021/09/14 00:24:16;;;;;;;1.88;1.23;;;;;;;;;;4934502;29;20034;-86
2021/09/14 00:26:42;;;;;;;3.50;1.80;;;;;;;;;;4933953;29;20038;-87
2021/09/14 00:29:08;;;;;;;1.48;1.25;;;;;;;;;;4928516;29;20028;-86
2021/09/14 00:31:34;;;;;;;3.38;1.80;;;;;;;;;;4922021;29;20032;-87
2021/09/14 00:34:00;;;;;;;3.60;1.70;;;;;;;;;;4933732;29;20055;-86
2021/09/14 00:36:26;;;;;;;3.28;1.55;;;;;;;;;;4934559;29;20528;-86
2021/09/14 00:38:52;;;;;;;3.60;1.73;;;;;;;;;;4925089;29;20119;-87
2021/09/14 00:41:18;;;;;;;3.00;2.33;;;;;;;;;;4943395;28;20114;-87
2021/09/14 00:43:58;;;;;;;2.35;1.50;;;22.40;61.00;;;;;;4926181;29;20087;-86
2021/09/14 00:46:24;;;;;;;7.53;3.15;;;;;;;;;;4933913;29;20027;-86
2021/09/14 00:48:50;;;;;;;3.97;2.00;;;;;;;;;;4916924;29;20127;-86
2021/09/14 00:51:16;;;;;;;4.40;2.47;;;;;;;;;;4934059;29;20028;-86
2021/09/14 00:53:42;;;;;;;4.55;3.45;;;;;;;;;;4927402;29;20036;-87
2021/09/14 00:56:08;;;;;;;2.80;1.75;;;;;;;;;;4925849;29;20043;-86
2021/09/14 00:58:34;;;;;;;3.20;2.38;;;;;;;;;;4933527;29;20457;-87
2021/09/14 01:01:00;;;;;;;6.03;2.38;;;;;;;;;;4931435;29;20039;-86
2021/09/14 01:03:26;;;;;;;2.60;1.60;;;;;;;;;;4915514;29;20621;-86
2021/09/14 01:05:52;;;;;;;4.00;2.40;;;;;;;;;;4933656;29;20111;-86
2021/09/14 01:08:18;;;;;;;3.63;1.65;;;;;;;;;;4928259;29;20043;-87
2021/09/14 01:10:45;;;;;;;2.78;1.90;;;;;;;;;;4923707;29;20035;-85
2021/09/14 01:13:11;;;;;;;3.30;2.22;;;;;;;;;;4929295;29;20036;-86
2021/09/14 01:15:37;;;;;;;2.78;1.77;;;;;;;;;;4933126;29;20086;-87
2021/09/14 01:18:04;;;;;;;5.10;2.30;;;22.30;62.30;;;;;;4933932;29;20027;-86
2021/09/14 01:20:30;;;;;;;5.40;2.03;;;;;;;;;;4932113;29;20650;-86
2021/09/14 01:22:56;;;;;;;3.53;2.30;;;;;;;;;;4925065;29;20055;-87
2021/09/14 01:25:23;;;;;;;3.83;1.92;;;;;;;;;;4930981;29;20500;-87
2021/09/14 01:27:49;;;;;;;6.70;1.70;;;;;;;;;;4931860;29;20038;-88
2021/09/14 01:30:19;;;;;;;4.78;2.13;;;;;;;;;;4948472;29;20032;-88
2021/09/14 01:32:47;;;;;;;3.75;2.38;;;;;;;;;;4932743;29;20465;-86
2021/09/14 01:35:17;;;;;;;2.15;1.80;;;;;;;;;;4932486;29;20036;-86
2021/09/14 01:37:43;;;;;;;3.45;1.83;;;;;;;;;;4929762;29;20032;-85
2021/09/14 01:40:10;;;;;;;2.45;1.92;;;;;;;;;;4930138;29;20039;-87
2021/09/14 01:42:36;;;;;;;4.27;2.03;;;;;;;;;;4929188;29;20036;-86
2021/09/14 01:45:03;;;;;;;4.47;2.23;;;;;;;;;;4933373;29;20032;-86
2021/09/14 01:47:29;;;;;;;4.20;2.03;;;;;;;;;;4932005;29;20472;-87
2021/09/14 01:49:55;;;;;;;3.80;2.60;;;;;;;;;;4931634;29;20055;-86
2021/09/14 01:52:21;;;;;;;2.60;2.05;;;;;;;;;;4932522;29;20043;-88
2021/09/14 01:54:49;;;;;;;4.05;1.92;;;;;;;;;;4932587;29;20453;-86
2021/09/14 01:57:19;;;;;;;3.13;1.92;;;;;;;;;;4933655;29;20051;-87
2021/09/14 01:59:45;;;;;;;3.00;1.90;;;;;;;;;;4932569;29;20506;-88
2021/09/14 02:02:23;;;;;;;2.55;1.50;;;;;;;;;;4932723;29;20077;-86
2021/09/14 02:05:48;;;;;;;2.42;1.48;;;;;;;;;;4929358;29;20070;-86
2021/09/14 02:08:05;;;;;;;3.37;1.60;;;;;;;;;;4922915;29;20557;-86
2021/09/14 02:30:08;;;;;;;2.45;1.45;;;;;;;;;;4931690;29;20576;-87
2021/09/14 03:00:00;;;;;;;3.33;1.80;;;;;;;;;;4875544;29;20060;-86
2021/09/14 03:02:26;;;;;;;5.30;2.10;;;;;;;;;;4873434;29;20041;-86
2021/09/14 03:04:52;;;;;;;2.97;1.85;;;;;;;;;;4858345;29;20104;-87
2021/09/14 03:07:18;;;;;;;3.63;1.80;;;;;;;;;;4859435;29;20033;-87
2021/09/14 03:09:44;;;;;;;3.22;1.75;;;;;;;;;;4932733;29;20074;-87
2021/09/14 03:12:10;;;;;;;2.42;1.40;;;;;;;;;;4936282;29;20085;-87
2021/09/14 03:14:36;;;;;;;2.22;1.70;;;;;;;;;;4934271;29;20047;-87
2021/09/14 03:17:03;;;;;;;3.60;1.98;;;;;;;;;;4927558;29;20055;-88
2021/09/14 03:19:29;;;;;;;3.30;1.40;;;;;;;;;;4923312;29;20030;-86
2021/09/14 03:21:55;;;;;;;7.35;2.22;;;;;;;;;;4935202;29;20024;-86
2021/09/14 03:24:21;;;;;;;4.53;2.50;;;;;;;;;;4936013;29;20500;-87
2021/09/14 03:26:47;;;;;;;5.38;2.00;;;;;;;;;;4928030;29;20024;-87
2021/09/14 03:29:13;;;;;;;1.80;1.45;;;;;;;;;;4930114;29;20508;-86
2021/09/14 03:31:39;;;;;;;9.15;1.90;;;;;;;;;;4935045;29;20035;-86
2021/09/14 03:34:05;;;;;;;4.55;2.08;;;;;;;;;;4935540;29;20035;-86
2021/09/14 03:36:31;;;;;;;3.90;2.30;;;;;;;;;;4935178;29;20131;-87
2021/09/14 03:38:57;;;;;;;4.03;3.03;;;;;;;;;;4935452;29;20111;-86
2021/09/14 03:41:23;;;;;;;5.78;1.65;;;;;;;;;;4934364;29;20035;-87
2021/09/14 03:43:49;;;;;;;3.50;2.00;;;;;;;;;;4930425;29;20075;-86
2021/09/14 03:46:15;;;;;;;3.45;2.20;;;;;;;;;;4934908;29;20553;-88
2021/09/14 03:48:41;;;;;;;2.85;2.13;;;;;;;;;;4935206;29;20065;-87
2021/09/14 03:51:07;;;;;;;5.00;2.58;;;;;;;;;;4935470;29;20024;-87
2021/09/14 03:53:33;;;;;;;3.33;1.50;;;;;;;;;;4949785;29;20087;-87
2021/09/14 03:55:59;;;;;;;2.13;1.33;;;;;;;;;;4929509;29;20099;-86
2021/09/14 03:58:25;;;;;;;3.05;1.80;;;;;;;;;;4921569;29;20042;-86
2021/09/14 04:00:52;;;;;;;2.92;1.70;;;;;;;;;;4934222;29;20031;-87
2021/09/14 04:03:26;;;;;;;2.92;2.33;;;;;;;;;;4949873;29;20039;-88
2021/09/14 04:11:15;;;;;;;3.20;1.50;;;;;;;;;;4934273;29;20042;-87
2021/09/14 04:13:41;;;;;;;1.98;1.58;;;;;;;;;;4930045;29;20127;-87
2021/09/14 04:16:07;;;;;;;4.53;1.77;;;;;;;;;;4934744;29;20118;-85
2021/09/14 04:18:33;;;;;;;6.03;2.08;;;;;;;;;;4934583;29;20401;-87
2021/09/14 04:20:59;;;;;;;2.13;1.63;;;;;;;;;;4949588;29;20031;-86
2021/09/14 04:23:25;;;;;;;2.35;1.95;;;;;;;;;;4932010;29;20276;-87
2021/09/14 04:25:51;;;;;;;3.08;1.77;;;;;;;;;;4934355;29;20039;-87
2021/09/14 04:28:17;;;;;;;3.90;1.77;;;;;;;;;;4931629;29;20063;-87
2021/09/14 04:30:43;;;;;;;3.15;1.90;;;;;;;;;;4918603;29;20028;-86
2021/09/14 04:33:09;;;;;;;9.52;1.90;;;;;;;;;;4933195;29;20028;-87
2021/09/14 04:35:36;;;;;;;5.90;2.45;;;;;;;;;;4926628;29;20086;-87
2021/09/14 04:38:03;;;;;;;9.27;2.23;;;;;;;;;;4927076;29;20039;-86
2021/09/14 04:40:29;;;;;;;4.45;2.08;;;;;;;;;;4930528;29;20485;-86
2021/09/14 04:42:55;;;;;;;12.43;2.75;;;;;;;;;;4933879;29;20531;-86
2021/09/14 04:45:21;;;;;;;5.07;1.55;;;;;;;;;;4949430;29;20122;-88
2021/09/14 04:47:47;;;;;;;5.00;2.10;;;;;;;;;;4948720;29;20409;-87
2021/09/14 04:50:13;;;;;;;5.40;2.03;;;;;;;;;;4933463;29;20038;-85
2021/09/14 04:52:39;;;;;;;3.47;2.55;;;;;;;;;;4934009;29;20086;-86
2021/09/14 04:55:05;;;;;;;3.75;2.47;;;;;;;;;;4932565;29;20047;-86
2021/09/14 04:57:31;;;;;;;5.95;2.30;;;;;;;;;;4932525;29;20122;-87
2021/09/14 04:59:58;;;;;;;2.92;2.00;;;;;;;;;;4932988;29;20038;-86
2021/09/14 05:02:24;;;;;;;3.97;2.13;;;;;;;;;;4933983;29;20024;-87
2021/09/14 05:04:50;;;;;;;2.72;1.83;;;;;;;;;;4942249;29;20035;-87
2021/09/14 05:07:16;;;;;;;6.30;1.85;;;;;;;;;;4940536;29;20520;-88
2021/09/14 05:09:42;;;;;;;3.42;1.42;;;;;;;;;;4933226;29;20019;-85
2021/09/14 05:12:08;;;;;;;3.38;1.85;;;;;;;;;;4940347;29;20038;-86
2021/09/14 05:14:34;;;;;;;3.33;1.63;;;;;;;;;;4942961;29;20090;-86
2021/09/14 05:17:00;;;;;;;3.38;1.35;;;;;;;;;;4940471;29;20062;-87
2021/09/14 05:19:34;;;;;;;2.08;1.52;;;;;;;;;;4942833;29;20396;-87
2021/09/14 05:22:01;;;;;;;2.15;1.48;;;;;;;;;;4925366;29;20036;-86
2021/09/14 05:24:27;;;;;;;4.50;1.63;;;;;;;;;;4940670;29;20032;-87
2021/09/14 05:26:54;;;;;;;2.72;1.50;;;;;;;;;;4937010;29;20063;-88
2021/09/14 05:29:19;;;;;;;4.22;1.65;;;;;;;;;;4943541;29;20035;-87
2021/09/14 05:31:46;;;;;;;5.53;2.00;;;;;;;;;;4939495;29;20054;-87
2021/09/14 05:34:12;;;;;;;3.58;2.55;;;;;;;;;;4937274;29;20078;-87
2021/09/14 05:36:38;;;;;;;2.92;1.80;;;;;;;;;;4940730;28;20066;-87
2021/09/14 05:39:05;;;;;;;3.70;1.98;;;;;;;;;;4941808;29;20496;-88
2021/09/14 05:41:31;;;;;;;3.30;1.77;;;;;;;;;;4928763;29;20044;-88
2021/09/14 05:43:57;;;;;;;3.00;1.80;;;;;;;;;;4927862;29;20032;-88
2021/09/14 05:46:25;;;;;;;5.53;2.08;;;;;;;;;;4943199;29;20111;-86
2021/09/14 05:48:51;;;;;;;4.53;1.88;;;;;;;;;;4931262;29;20063;-86
2021/09/14 05:51:17;;;;;;;5.95;2.90;;;;;;;;;;4945592;28;20024;-87
2021/09/14 05:53:43;;;;;;;2.08;1.60;;;;;;;;;;4930355;29;20631;-86
2021/09/14 05:56:09;;;;;;;3.25;1.80;;;;;;;;;;4927293;29;20130;-86
2021/09/14 05:58:35;;;;;;;3.70;1.70;;;;;;;;;;4931354;29;20031;-88
2021/09/14 06:01:01;;;;;;;3.92;1.90;;;;;;;;;;4929377;29;20067;-87
2021/09/14 06:03:28;;;;;;;4.07;2.40;;;22.70;65.70;;;;;;4927036;29;20028;-86
2021/09/14 06:05:54;;;;;;;8.00;1.95;;;;;;;;;;4930755;29;20226;-86
2021/09/14 06:08:20;;;;;;;2.85;1.65;;;;;;;;;;4930021;29;20038;-86
2021/09/14 06:10:47;;;;;;;5.53;2.60;;;;;;;;;;4930383;29;20039;-88
2021/09/14 06:13:13;;;;;;;2.97;1.75;;;;;;;;;;4931122;29;20055;-86
2021/09/14 06:15:39;;;;;;;5.30;2.60;;;;;;;;;;4930350;29;20489;-87
2021/09/14 06:18:05;;;;;;;5.78;2.58;;;;;;;;;;4931630;29;20040;-86
2021/09/14 06:20:31;;;;;;;9.50;2.95;;;;;;;;;;4931015;29;20051;-86
2021/09/14 06:25:08;;;;;;;4.13;2.13;;;;;;;;;;5102902;27;20833;-86
2021/09/14 06:27:34;;;;;;;5.05;2.97;;;;;;;;;;5085576;28;20055;-82
2021/09/14 06:30:00;;;;;;;3.75;1.35;;;;;;;;;;5090866;28;20068;-83
2021/09/14 06:32:26;;;;;;;2.90;2.17;;;;;;;;;;5091691;28;20093;-84
2021/09/14 06:34:52;;;;;;;4.03;2.00;;;;;;;;;;5101284;28;20032;-89
2021/09/14 06:37:18;;;;;;;4.97;2.53;;;;;;;;;;5089108;28;20040;-86
2021/09/14 06:39:44;;;;;;;3.42;1.88;;;;;;;;;;5104841;28;20024;-86
2021/09/14 06:42:10;;;;;;;6.35;2.30;;;;;;;;;;5105025;28;20063;-95
2021/09/14 06:44:36;;;;;;;3.67;1.73;;;;;;;;;;5096341;28;20016;-89
2021/09/14 06:47:02;;;;;;;4.50;1.58;;;;;;;;;;5091891;28;20067;-95
2021/09/14 06:49:29;;;;;;;7.45;2.85;;;;;;;;;;5090446;28;20581;-95
2021/09/14 06:51:58;;;;;;;3.57;1.60;;;;;;;;;;5104132;28;20028;-95
2021/09/14 06:54:24;;;;;;;9.55;2.15;;;;;;;;;;5092960;28;20036;-87
2021/09/14 06:56:50;;;;;;;6.65;1.83;;;;;;;;;;5108670;28;20054;-93
2021/09/14 06:59:16;;;;;;;2.47;1.58;;;;;;;;;;5109579;28;20047;-90
2021/09/14 07:01:42;;;;;;;2.72;2.10;;;;;;;;;;5098058;28;20485;-88
2021/09/14 07:04:08;;;;;;;4.50;1.75;;;;;;;;;;5088176;28;20027;-87
2021/09/14 07:06:34;;;;;;;2.28;1.73;;;;;;;;;;5091051;28;20024;-91
2021/09/14 07:09:00;;;;;;;2.60;1.55;;;;;;;;;;5088916;28;20024;-90
2021/09/14 07:11:26;;;;;;;2.92;1.42;;;;;;;;;;5088367;28;20024;-89
2021/09/14 07:13:52;;;;;;;3.70;1.95;;;;;;;;;;5090676;28;20044;-91
2021/09/14 07:16:19;;;;;;;4.57;2.15;;;;;;;;;;5102953;28;20633;-88
2021/09/14 07:18:46;;;;;;;3.97;1.45;;;;;;;;;;5103364;28;20058;-87
2021/09/14 07:21:12;;;;;;;;;;;23.20;64.80;;;;;;5110362;28;20087;-92
2021/09/14 07:23:38;;;;;;;3.65;1.38;;;;;;;;;;5103017;28;19920;-90
2021/09/14 07:26:04;;;;;;;3.00;1.83;;;;;;;;;;5095629;28;20024;-89
2021/09/14 07:28:30;;;;;;;1.88;1.58;;;;;;;;;;5106649;28;20031;-88
2021/09/14 07:30:56;;;;;;;6.72;1.70;;;;;;;;;;5087166;28;20028;-85
2021/09/14 07:33:22;;;;;;;3.58;1.38;;;;;;;;;;5099833;28;20066;-85
2021/09/14 07:35:48;;;;;;;1.92;1.50;;;;;;;;;;5093048;28;20064;-85
2021/09/14 07:38:14;;;;;;;4.63;2.35;;;;;;;;;;5084127;28;20485;-85
2021/09/14 07:40:40;;;;;;;4.18;1.70;;;;;;;;;;5087609;28;20024;-84
2021/09/14 07:43:06;;;;;;;3.05;1.38;;;;;;;;;;5071737;28;20024;-84
2021/09/14 07:45:33;;;;;;;6.93;2.72;;;;;;;;;;5075212;28;20159;-87
2021/09/14 07:47:59;;;;;;;4.97;2.03;;;;;;;;;;5076358;28;20052;-86
2021/09/14 07:50:25;;;;;;;4.82;1.85;;;;;;;;;;5084777;28;20146;-85
2021/09/14 07:52:51;;;;;;;3.83;1.90;;;;;;;;;;5085989;28;20503;-85
2021/09/14 07:55:17;;;;;;;3.33;2.22;;;;;;;;;;5086972;28;20404;-84
2021/09/14 07:57:43;;;;;;;3.78;1.73;;;;;;;;;;5092426;28;20028;-85
2021/09/14 08:00:10;;;;;;;3.35;1.88;;;;;;;;;;5080902;28;20116;-85
2021/09/14 08:02:36;;;;;;;2.95;2.47;;;;;;;;;;5082233;28;20028;-87
2021/09/14 08:05:02;;;;;;;3.13;2.00;;;;;;;;;;5080925;28;20025;-85
2021/09/14 08:07:28;;;;;;;4.28;2.17;;;;;;;;;;5077164;28;20123;-86
2021/09/14 08:09:54;;;;;;;5.57;1.88;;;;;;;;;;5093133;28;20144;-86
2021/09/14 08:12:20;;;;;;;4.10;1.70;;;;;;;;;;5091494;28;20119;-86
2021/09/14 08:14:46;;;;;;;4.47;2.75;;;;;;;;;;5090147;28;20048;-85
2021/09/14 08:17:14;;;;;;;5.30;2.60;;;;;;;;;;5091906;28;20085;-85
2021/09/14 08:19:41;;;;;;;3.85;1.90;;;;;;;;;;5086146;28;20032;-85
2021/09/14 08:22:07;;;;;;;5.30;2.20;;;;;;;;;;5087594;28;20029;-85
2021/09/14 08:24:34;;;;;;;4.30;2.30;;;;;;;;;;5092882;28;20044;-86
2021/09/14 08:27:00;;;;;;;5.65;2.05;;;;;;;;;;5091811;28;20457;-85
2021/09/14 08:29:25;;;;;;;4.32;3.05;;;;;;;;;;5091913;28;20055;-86
2021/09/14 08:31:52;;;;;;;8.05;3.10;;;;;;;;;;5089676;28;20017;-86
2021/09/14 08:34:17;;;;;;;5.13;1.83;;;;;;;;;;5078265;28;20032;-85
2021/09/14 08:36:44;;;;;;;3.95;2.42;;;;;;;;;;5077049;28;20462;-85
2021/09/14 08:39:10;;;;;;;4.00;1.95;;;;;;;;;;5094423;28;20170;-85
2021/09/14 08:41:37;;;;;;;4.00;2.40;;;24.10;63.70;;;;;;5083687;28;20028;-87
2021/09/14 08:44:03;;;;;;;;;;;24.10;63.50;;;;;;5098055;28;20052;-85
2021/09/14 08:46:29;;;;;;;2.63;1.53;;;;;;;;;;5076583;28;19908;-85
2021/09/14 08:48:57;;;;;;;4.07;1.83;;;;;;;;;;5073426;28;20275;-85
2021/09/14 08:51:23;;;;;;;7.97;3.33;;;;;;;;;;5087344;28;20028;-86
2021/09/14 08:53:49;;;;;;;4.10;2.22;;;;;;;;;;5085461;28;20051;-86
2021/09/14 08:56:16;;;;;;;5.80;2.30;;;;;;;;;;5089597;28;20027;-85
2021/09/14 08:58:42;;;;;;;3.47;2.42;;;;;;;;;;5091979;28;20031;-84
2021/09/14 09:01:12;;;;;;;2.97;2.28;;;;;;;;;;5090648;28;20021;-85
2021/09/14 09:03:38;;;;;;;3.83;2.22;;;;;;;;;;5086817;28;20077;-85
2021/09/14 09:06:05;;;;;;;4.40;2.13;;;;;;;;;;5075502;28;20050;-85
2021/09/14 09:08:31;;;;;;;5.85;1.90;;;;;;;;;;5085066;28;20096;-85
2021/09/14 09:11:00;;;;;;;10.40;2.70;;;;;;;;;;5085323;28;20029;-86
2021/09/14 09:13:30;;;;;;;6.03;1.90;;;;;;;;;;5078392;28;20074;-85
2021/09/14 09:15:56;;;;;;;12.55;1.92;;;;;;;;;;5074065;28;20032;-85
2021/09/14 09:18:22;;;;;;;6.35;2.33;;;;;;;;;;5080208;28;20020;-85
2021/09/14 09:20:49;;;;;;;5.00;2.58;;;;;;;;;;5090799;28;20037;-85
2021/09/14 09:23:20;;;;;;;5.07;2.72;;;;;;;;;;5080695;28;20028;-84
2021/09/14 09:25:46;;;;;;;4.45;2.25;;;;;;;;;;5081479;28;20289;-85
2021/09/14 09:28:19;;;;;;;9.88;2.78;;;24.10;64.50;;;;;;5090554;28;20119;-85
2021/09/14 09:30:54;;;;;;;5.25;2.38;;;;;;;;;;5078712;28;20028;-85
2021/09/14 09:33:30;;;;;;;6.20;2.38;;;;;;;;;;5078721;28;20135;-85
2021/09/14 09:36:06;;;;;;;5.43;1.83;;;;;;;;;;5094724;28;20046;-84
2021/09/14 09:38:45;;;;;;;3.30;2.50;;;;;;;;;;5082438;28;20040;-85
2021/09/14 09:41:14;;;;;;;4.25;2.30;;;;;;;;;;5080380;28;20028;-85
2021/09/14 09:43:40;;;;;;;6.22;2.67;;;;;;;;;;5092579;28;20032;-84
2021/09/14 09:46:10;;;;;;;5.93;2.33;;;;;;;;;;5092402;28;20036;-85
2021/09/14 09:48:37;;;;;;;3.10;2.38;;;;;;;;;;5078233;28;20028;-85
2021/09/14 09:51:04;;;;;;;8.93;2.83;;;24.50;64.90;;;;;;5088832;28;20042;-86
2021/09/14 09:53:34;;;;;;;3.67;2.30;;;;;;;;;;5085792;28;20040;-85
2021/09/14 09:56:01;;;;;;;4.63;2.15;;;;;;;;;;5093958;28;20597;-85
2021/09/14 09:58:28;;;;;;;6.18;3.10;;;;;;;;;;5091742;28;20046;-86
2021/09/14 10:01:14;;;;;;;4.13;2.03;;;24.60;66.40;;;;;;5068941;28;20157;-86
2021/09/14 10:03:48;;;;;;;8.20;2.40;;;;;;;;;;5084034;28;20028;-85
2021/09/14 10:06:15;;;;;;;3.75;2.88;;;24.70;65.30;;;;;;5073580;28;20950;-86
2021/09/14 10:08:41;;;;;;;2.38;1.60;;;;;;;;;;5084270;28;20115;-85
2021/09/14 10:11:07;;;;;;;4.10;2.45;;;;;;;;;;5086267;28;20028;-85
2021/09/14 10:13:40;;;;;;;5.95;2.25;;;24.70;62.10;;;;;;5087303;28;20024;-87
2021/09/14 10:16:08;;;;;;;5.78;2.40;;;;;;;;;;5070535;28;20032;-86
2021/09/14 10:18:34;;;;;;;4.78;1.98;;;;;;;;;;5083992;28;20053;-86
2021/09/14 10:21:04;;;;;;;5.30;2.78;;;;;;;;;;5073773;28;20521;-86
2021/09/14 10:23:34;;;;;;;3.60;2.33;;;;;;;;;;5077331;28;20516;-86
2021/09/14 10:26:07;;;;;;;4.20;2.22;;;;;;;;;;5082076;28;20039;-85
2021/09/14 10:28:44;;;;;;;4.53;1.90;;;;;;;;;;5070110;28;20063;-85
2021/09/14 10:31:27;;;;;;;5.47;1.63;;;25.50;59.10;;;;;;5069406;28;20033;-85
2021/09/14 10:34:04;;;;;;;4.53;1.67;;;25.30;78.80;;;;;;5068950;28;20040;-85
2021/09/14 10:36:31;;;;;;;8.43;2.88;;;25.60;58.90;;;;;;5083734;28;20101;-84
2021/09/14 10:38:56;;;;;;;;;;;25.60;60.60;;;;;;5080208;28;20093;-85
2021/09/14 10:41:22;;;;;;;8.10;1.60;;;;;;;;;;5077460;28;19912;-85
2021/09/14 10:43:56;;;;;;;6.57;2.35;;;;;;;;;;5071567;28;20090;-85
2021/09/14 10:46:25;;;;;;;4.30;2.35;;;;;;;;;;5085717;28;20055;-85
2021/09/14 10:48:52;;;;;;;3.65;2.00;;;;;;;;;;5069776;28;20141;-85
2021/09/14 10:51:18;;;;;;;3.40;1.95;;;;;;;;;;5072651;28;20025;-84
2021/09/14 10:53:54;;;;;;;5.63;2.73;;;25.60;59.30;;;;;;5072374;28;20834;-84
2021/09/14 10:56:20;;;;;;;4.85;2.60;;;;;;;;;;5078244;28;20024;-85
2021/09/14 10:58:46;;;;;;;5.50;2.83;;;;;;;;;;5085013;28;20032;-86
2021/09/14 11:01:13;;;;;;;3.67;1.85;;;;;;;;;;5084019;28;20020;-86
2021/09/14 11:03:39;;;;;;;2.85;1.95;;;;;;;;;;5069980;28;20025;-85
2021/09/14 11:06:08;;;;;;;7.50;2.03;;;;;;;;;;5073578;28;20504;-86
2021/09/14 11:08:34;;;;;;;8.52;2.55;;;;;;;;;;5074654;28;20024;-85
2021/09/14 11:11:02;;;;;;;6.30;2.55;;;25.30;61.70;;;;;;5074332;28;20039;-85
2021/09/14 11:13:28;;;;;;;5.97;2.53;;;;;;;;;;5087919;28;20028;-84
2021/09/14 11:15:58;;;;;;;7.20;2.83;;;;;;;;;;5072974;28;20036;-85
2021/09/14 11:18:25;;;;;;;4.28;2.15;;;;;;;;;;5087239;28;20058;-86
2021/09/14 11:20:52;;;;;;;10.30;2.25;;;;;;;;;;5079354;28;20024;-86
2021/09/14 11:23:25;;;;;;;6.30;2.25;;;;;;;;;;5083120;28;20051;-85
2021/09/14 11:26:12;;;;;;;5.43;2.00;;;25.40;61.20;;;;;;5087947;28;20040;-85
2021/09/14 11:28:39;;;;;;;4.40;2.60;;;;;;;;;;5088573;28;20095;-85
2021/09/14 11:31:06;;;;;;;4.72;2.60;;;;;;;;;;5072848;28;20032;-86
2021/09/14 11:33:32;;;;;;;;;;;25.50;60.90;;;;;;5090950;28;20036;-87
2021/09/14 11:35:59;;;;;;;4.20;2.50;;;;;;;;;;5084193;28;19918;-85
2021/09/14 11:38:26;;;;;;;4.88;1.80;;;;;;;;;;5083705;28;20035;-85
2021/09/14 11:40:57;;;;;;;5.75;2.13;;;25.80;60.80;;;;;;5084260;28;20115;-85
2021/09/14 11:43:24;;;;;;;5.50;1.85;;;;;;;;;;5086708;28;20030;-85
2021/09/14 11:45:52;;;;;;;8.25;2.63;;;25.80;60.20;;;;;;5087814;28;20052;-85
2021/09/14 11:48:25;;;;;;;3.60;2.22;;;;;;;;;;5086839;28;20028;-85
2021/09/14 11:51:02;;;;;;;6.00;2.20;;;25.90;59.80;;;;;;5084355;28;20035;-86
2021/09/14 11:53:28;;;;;;;;;;;;;;;;;;5080184;28;20124;-86
2021/09/14 11:55:54;;;;;;;6.40;3.30;;;;;;;;;;5075024;28;19991;-85
2021/09/14 11:58:31;;;;;;;9.23;1.98;;;;;;;;;;5086168;28;20071;-86
2021/09/14 12:01:02;;;;;;;3.35;1.95;;;26.50;58.00;;;;;;5087123;28;20052;-85
2021/09/14 12:03:36;;;;;;;3.40;2.00;;;;;;;;;;5075110;28;20032;-86
2021/09/14 12:06:02;;;;;;;4.80;2.15;;;;;;;;;;5076219;28;20468;-86
2021/09/14 12:08:30;;;;;;;5.40;2.47;;;;;;;;;;5079578;28;20505;-85
2021/09/14 12:10:56;;;;;;;5.75;2.88;;;;;;;;;;5087060;28;20059;-86
2021/09/14 12:13:22;;;;;;;9.97;2.50;;;;;;;;;;5087028;28;20032;-85
2021/09/14 12:15:49;;;;;;;3.85;1.77;;;27.50;56.10;;;;;;5073566;28;20032;-85
2021/09/14 12:18:15;;;;;;;4.65;1.77;;;;;;;;;;5086241;28;20020;-86
2021/09/14 12:20:43;;;;;;;3.50;1.75;;;;;;;;;;5088621;28;20396;-86
2021/09/14 12:23:09;;;;;;;6.25;1.90;;;;;;;;;;5084539;28;20115;-87
2021/09/14 12:25:35;;;;;;;3.90;1.58;;;;;;;;;;5073190;28;20036;-84
2021/09/14 12:28:01;;;;;;;2.70;1.50;;;;;;;;;;5087635;28;20392;-86
2021/09/14 12:30:27;;;;;;;4.72;1.83;;;;;;;;;;5086162;28;20110;-86
2021/09/14 12:32:53;;;;;;;5.35;1.88;;;;;;;;;;5083375;28;20433;-85
2021/09/14 12:35:19;;;;;;;3.97;2.38;;;;;;;;;;5079071;28;20092;-85
2021/09/14 12:37:45;;;;;;;4.57;1.50;;;;;;;;;;5075393;28;20031;-85
2021/09/14 12:40:11;;;;;;;8.48;2.90;;;;;;;;;;5085145;28;20389;-86
2021/09/14 12:42:38;;;;;;;5.72;2.45;;;;;;;;;;5085411;28;20019;-86
2021/09/14 12:45:04;;;;;;;3.90;1.77;;;;;;;;;;5074881;28;20028;-87
2021/09/14 12:47:30;;;;;;;5.13;2.27;;;;;;;;;;5076271;28;20514;-85
2021/09/14 12:49:56;;;;;;;3.72;1.83;;;;;;;;;;5078381;28;20029;-86
2021/09/14 12:52:23;;;;;;;3.85;1.50;;;;;;;;;;5085312;28;20024;-86
2021/09/14 12:54:49;;;;;;;4.15;1.58;;;;;;;;;;5086563;28;20119;-87
2021/09/14 12:57:15;;;;;;;3.13;1.27;;;;;;;;;;5073912;28;20075;-86
2021/09/14 12:59:40;;;;;;;3.10;1.35;;;;;;;;;;5075056;28;20116;-86
2021/09/14 13:02:08;;;;;;;4.63;1.17;;;;;;;;;;5075113;28;20024;-86
2021/09/14 13:04:34;;;;;;;9.27;1.88;;;;;;;;;;5085342;28;20077;-85
2021/09/14 13:07:00;;;;;;;7.15;1.08;;;;;;;;;;5070228;28;20033;-85
2021/09/14 13:09:26;;;;;;;2.30;1.17;;;;;;;;;;5073598;28;20033;-85
2021/09/14 13:11:52;;;;;;;4.75;0.93;;;;;;;;;;5081278;28;20038;-86
2021/09/14 13:17:02;;;;;;;2.88;1.60;;;;;;;;;;5076996;28;20115;-86
2021/09/14 13:19:28;;;;;;;4.80;0.80;;;;;;;;;;5073891;28;20036;-86
2021/09/14 13:21:55;;;;;;;2.08;0.65;;;;;;;;;;5068861;28;20775;-85
2021/09/14 13:24:21;;;;;;;6.63;1.20;;;;;;;;;;5083740;28;20483;-85
2021/09/14 13:26:46;;;;;;;5.32;1.60;;;;;;;;;;5076962;28;20060;-85
2021/09/14 13:29:12;;;;;;;2.70;0.40;;;;;;;;;;5075418;28;20028;-86
2021/09/14 13:31:38;;;;;;;1.80;0.60;;;;;;;;;;5083671;28;20043;-86
2021/09/14 13:34:05;;;;;;;3.35;0.60;;;;;;;;;;5077176;28;20040;-85
2021/09/14 13:36:31;;;;;;;2.10;0.60;;;;;;;;;;5073650;28;20035;-85
2021/09/14 13:38:57;;;;;;;2.17;0.52;;;;;;;;;;5072908;28;20473;-85
2021/09/14 13:41:30;;;;;;;0.75;0.55;;;;;;;;;;5073020;28;20078;-85
2021/09/14 13:46:10;;;;;;;5.15;1.25;;;;;;;;;;5075427;28;20032;-85
2021/09/14 13:46:45;;;;;;;1.67;0.75;;;;;;;;;;5083670;28;20931;-85
2021/09/14 13:49:11;;;;;;;1.60;0.80;;;;;;;;;;5081761;28;20409;-86
2021/09/14 13:51:37;;;;;;;3.95;1.55;;;;;;;;;;5087323;28;20502;-86
2021/09/14 13:54:03;;;;;;;1.58;1.10;;;;;;;;;;5073465;28;20025;-86
2021/09/14 13:56:29;;;;;;;3.88;1.00;;;;;;;;;;5076244;28;20024;-85
2021/09/14 13:58:55;;;;;;;1.20;0.43;;;;;;;;;;5071786;28;20044;-85
2021/09/14 14:01:22;;;;;;;1.95;0.82;;;;;;;;;;5084233;28;20429;-85
2021/09/14 14:03:50;;;;;;;3.10;0.57;;;27.20;47.90;;;;;;5084692;28;20060;-85
2021/09/14 14:06:16;;;;;;;3.88;0.70;;;;;;;;;;5083848;28;20033;-85
2021/09/14 14:08:43;;;;;;;3.17;0.80;;;;;;;;;;5079338;28;20107;-84
2021/09/14 14:11:09;;;;;;;0.82;0.52;;;;;;;;;;5085734;28;20050;-84
2021/09/14 14:13:35;;;;;;;0.87;0.50;;;;;;;;;;5084171;28;20046;-84
2021/09/14 14:16:02;;;;;;;1.30;0.70;;;;;;;;;;5068782;28;20032;-85
2021/09/14 14:18:28;;;;;;;1.88;0.85;;;;;;;;;;5072988;28;20028;-84
2021/09/14 14:20:54;;;;;;;2.42;0.80;;;;;;;;;;5079993;28;20047;-84
2021/09/14 14:23:20;;;;;;;2.97;0.60;;;;;;;;;;5080840;28;20035;-85
2021/09/14 14:25:46;;;;;;;1.63;0.80;;;;;;;;;;5079794;28;20392;-85
2021/09/14 14:28:12;;;;;;;1.05;0.65;;;;;;;;;;5082936;28;20032;-85
2021/09/14 14:30:38;;;;;;;1.88;0.60;;;;;;;;;;5068455;28;20036;-85
2021/09/14 14:33:04;;;;;;;0.80;0.70;;;;;;;;;;5081992;28;20498;-85
2021/09/14 14:35:30;;;;;;;2.35;0.70;;;;;;;;;;5085323;28;20130;-86
2021/09/14 14:37:57;;;;;;;3.88;0.52;;;;;;;;;;5078138;28;20503;-87
2021/09/14 14:40:23;;;;;;;4.40;1.20;;;;;;;;;;5074666;28;20028;-85
2021/09/14 14:42:50;;;;;;;1.07;0.83;;;;;;;;;;5070365;28;20029;-87
2021/09/14 14:45:16;;;;;;;1.90;0.75;;;;;;;;;;5084551;28;20270;-87
2021/09/14 14:47:48;;;;;;;1.65;0.82;;;;;;;;;;5090044;28;20028;-88
2021/09/14 14:50:14;;;;;;;2.10;0.77;;;;;;;;;;5077965;28;20038;-86
2021/09/14 14:52:40;;;;;;;1.10;0.70;;;;;;;;;;5082241;28;20412;-84
2021/09/14 14:55:06;;;;;;;1.00;0.77;;;;;;;;;;5089269;28;20120;-85
2021/09/14 14:57:32;;;;;;;2.35;0.88;;;;;;;;;;5087101;28;20493;-86
2021/09/14 14:59:58;;;;;;;2.17;1.23;;;;;;;;;;5088032;28;20028;-86
2021/09/14 15:02:24;;;;;;;2.35;1.67;;;;;;;;;;5082893;28;20020;-85
2021/09/14 15:04:50;;;;;;;1.60;1.08;;;;;;;;;;5079567;28;20484;-86
2021/09/14 15:07:17;;;;;;;2.10;0.98;;;;;;;;;;5090176;28;20032;-86
2021/09/14 15:09:43;;;;;;;1.45;0.88;;;;;;;;;;5090235;28;20099;-86
2021/09/14 15:12:10;;;;;;;1.15;0.93;;;;;;;;;;5089700;28;20023;-86
2021/09/14 15:14:36;;;;;;;;;;;;;;;;;;5080235;28;20048;-85
2021/09/14 15:17:02;;;;;;;1.27;0.77;;;;;;;;;;5078059;28;20585;-88
2021/09/14 15:19:28;;;;;;;4.82;0.80;;;;;;;;;;5088784;28;20063;-85
2021/09/14 15:21:54;;;;;;;3.08;1.02;;;;;;;;;;5071008;28;20111;-87
2021/09/14 15:24:20;;;;;;;1.85;0.90;;;;;;;;;;5086466;28;20058;-85
2021/09/14 15:26:46;;;;;;;2.28;1.05;;;;;;;;;;5083733;28;20023;-86
2021/09/14 15:29:12;;;;;;;1.77;1.08;;;;;;;;;;5086057;28;20021;-86
2021/09/14 15:31:38;;;;;;;3.28;0.75;;;;;;;;;;5077875;28;20544;-86
2021/09/14 15:34:04;;;;;;;4.63;0.90;;;;;;;;;;5071427;28;20028;-87